sensor_id;sensor_type;location;lat;lon;timestamp;temperature;humidity
27506;DHT22;14939;43.596;1.320;2023-03-09T00:00:48;12.30;99.90
27506;DHT22;14939;43.596;1.320;2023-03-09T00:03:21;12.30;99.90
27506;DHT22;14939;43.596;1.320;2023-03-09T00:05:55;12.40;99.90
27506;DHT22;14939;43.596;1.320;2023-03-09T00:08:21;12.30;99.90
27506;DHT22;14939;43.596;1.320;2023-03-09T00:10:47;12.30;99.90
27506;DHT22;14939;43.596;1.320;2023-03-09T00:13:17;12.30;99.90
27506;DHT22;14939;43.596;1.320;2023-03-09T00:15:43;12.30;99.90
27506;DHT22;14939;43.596;1.320;2023-03-09T00:18:10;12.30;99.90
27506;DHT22;14939;43.596;1.320;2023-03-09T00:20:37;12.30;99.90
27506;DHT22;14939;43.596;1.320;2023-03-09T00:23:03;12.30;99.90
27506;DHT22;14939;43.596;1.320;2023-03-09T00:25:34;12.30;99.90
27506;DHT22;14939;43.596;1.320;2023-03-09T00:28:00;12.30;99.90
27506;DHT22;14939;43.596;1.320;2023-03-09T00:30:26;12.30;99.90
27506;DHT22;14939;43.596;1.320;2023-03-09T00:32:53;12.30;99.90
27506;DHT22;14939;43.596;1.320;2023-03-09T00:35:19;12.30;99.90
27506;DHT22;14939;43.596;1.320;2023-03-09T00:37:45;12.30;99.90
27506;DHT22;14939;43.596;1.320;2023-03-09T00:40:12;12.30;99.90
27506;DHT22;14939;43.596;1.320;2023-03-09T00:42:44;12.30;99.90
27506;DHT22;14939;43.596;1.320;2023-03-09T00:45:11;12.20;99.90
27506;DHT22;14939;43.596;1.320;2023-03-09T00:47:38;12.20;99.90
27506;DHT22;14939;43.596;1.320;2023-03-09T00:50:05;12.20;99.90
27506;DHT22;14939;43.596;1.320;2023-03-09T00:52:31;12.20;99.90
27506;DHT22;14939;43.596;1.320;2023-03-09T00:54:57;12.20;99.90
27506;DHT22;14939;43.596;1.320;2023-03-09T00:57:24;12.20;99.90
27506;DHT22;14939;43.596;1.320;2023-03-09T00:59:50;12.20;99.90
27506;DHT22;14939;43.596;1.320;2023-03-09T01:02:18;12.10;99.90
27506;DHT22;14939;43.596;1.320;2023-03-09T01:04:44;12.10;99.90
27506;DHT22;14939;43.596;1.320;2023-03-09T01:07:10;12.20;99.90
27506;DHT22;14939;43.596;1.320;2023-03-09T01:09:37;12.10;99.90
27506;DHT22;14939;43.596;1.320;2023-03-09T01:12:04;12.10;99.90
27506;DHT22;14939;43.596;1.320;2023-03-09T01:14:30;12.10;99.90
27506;DHT22;14939;43.596;1.320;2023-03-09T01:16:56;12.10;99.90
27506;DHT22;14939;43.596;1.320;2023-03-09T01:19:22;12.10;99.90
27506;DHT22;14939;43.596;1.320;2023-03-09T01:21:47;12.10;99.90
27506;DHT22;14939;43.596;1.320;2023-03-09T01:24:13;12.10;99.90
27506;DHT22;14939;43.596;1.320;2023-03-09T01:26:39;12.00;99.90
27506;DHT22;14939;43.596;1.320;2023-03-09T01:29:04;12.00;99.90
27506;DHT22;14939;43.596;1.320;2023-03-09T01:31:30;12.10;99.90
27506;DHT22;14939;43.596;1.320;2023-03-09T01:33:56;12.10;99.90
27506;DHT22;14939;43.596;1.320;2023-03-09T01:36:21;12.00;99.90
27506;DHT22;14939;43.596;1.320;2023-03-09T01:38:47;12.00;99.90
27506;DHT22;14939;43.596;1.320;2023-03-09T01:41:15;12.10;99.90
27506;DHT22;14939;43.596;1.320;2023-03-09T01:43:43;12.10;99.90
27506;DHT22;14939;43.596;1.320;2023-03-09T01:51:48;12.10;99.90
27506;DHT22;14939;43.596;1.320;2023-03-09T01:57:31;12.20;99.90
27506;DHT22;14939;43.596;1.320;2023-03-09T02:00:12;12.20;99.90
27506;DHT22;14939;43.596;1.320;2023-03-09T02:02:39;12.20;99.90
27506;DHT22;14939;43.596;1.320;2023-03-09T02:05:09;12.20;99.90
27506;DHT22;14939;43.596;1.320;2023-03-09T02:07:38;12.20;99.90
27506;DHT22;14939;43.596;1.320;2023-03-09T02:12:35;12.20;99.90
27506;DHT22;14939;43.596;1.320;2023-03-09T02:15:02;12.20;99.90
27506;DHT22;14939;43.596;1.320;2023-03-09T02:17:28;12.10;99.90
27506;DHT22;14939;43.596;1.320;2023-03-09T02:22:37;12.10;99.90
27506;DHT22;14939;43.596;1.320;2023-03-09T02:27:33;12.10;99.90
27506;DHT22;14939;43.596;1.320;2023-03-09T02:29:59;12.00;99.90
27506;DHT22;14939;43.596;1.320;2023-03-09T02:32:25;12.00;99.90
27506;DHT22;14939;43.596;1.320;2023-03-09T02:34:51;12.00;99.90
27506;DHT22;14939;43.596;1.320;2023-03-09T02:39:49;11.90;99.90
27506;DHT22;14939;43.596;1.320;2023-03-09T02:42:16;12.00;99.90
27506;DHT22;14939;43.596;1.320;2023-03-09T02:44:42;12.00;99.90
27506;DHT22;14939;43.596;1.320;2023-03-09T02:47:11;12.00;99.90
27506;DHT22;14939;43.596;1.320;2023-03-09T02:49:38;11.90;99.90
27506;DHT22;14939;43.596;1.320;2023-03-09T02:52:04;11.90;99.90
27506;DHT22;14939;43.596;1.320;2023-03-09T02:54:30;11.90;99.90
27506;DHT22;14939;43.596;1.320;2023-03-09T02:56:56;12.00;99.90
27506;DHT22;14939;43.596;1.320;2023-03-09T02:59:22;12.00;99.90
27506;DHT22;14939;43.596;1.320;2023-03-09T03:01:47;12.00;99.90
27506;DHT22;14939;43.596;1.320;2023-03-09T03:04:13;11.90;99.90
27506;DHT22;14939;43.596;1.320;2023-03-09T03:06:39;12.00;99.90
27506;DHT22;14939;43.596;1.320;2023-03-09T03:09:05;12.00;99.90
27506;DHT22;14939;43.596;1.320;2023-03-09T03:11:31;12.00;99.90
27506;DHT22;14939;43.596;1.320;2023-03-09T03:13:57;12.00;99.90
27506;DHT22;14939;43.596;1.320;2023-03-09T03:16:22;12.00;99.90
27506;DHT22;14939;43.596;1.320;2023-03-09T03:18:48;12.00;99.90
27506;DHT22;14939;43.596;1.320;2023-03-09T03:21:14;12.00;99.90
27506;DHT22;14939;43.596;1.320;2023-03-09T03:23:40;12.00;99.90
27506;DHT22;14939;43.596;1.320;2023-03-09T03:26:07;12.00;99.90
27506;DHT22;14939;43.596;1.320;2023-03-09T03:28:33;12.00;99.90
27506;DHT22;14939;43.596;1.320;2023-03-09T03:30:59;12.00;99.90
27506;DHT22;14939;43.596;1.320;2023-03-09T03:33:25;12.00;99.90
27506;DHT22;14939;43.596;1.320;2023-03-09T03:35:50;12.00;99.90
27506;DHT22;14939;43.596;1.320;2023-03-09T03:38:16;12.00;99.90
27506;DHT22;14939;43.596;1.320;2023-03-09T03:40:42;12.00;99.90
27506;DHT22;14939;43.596;1.320;2023-03-09T03:43:07;12.00;99.90
27506;DHT22;14939;43.596;1.320;2023-03-09T03:45:33;12.00;99.90
27506;DHT22;14939;43.596;1.320;2023-03-09T03:47:59;12.00;99.90
27506;DHT22;14939;43.596;1.320;2023-03-09T03:50:25;11.90;99.90
27506;DHT22;14939;43.596;1.320;2023-03-09T03:52:50;11.90;99.90
27506;DHT22;14939;43.596;1.320;2023-03-09T03:55:16;11.90;99.90
27506;DHT22;14939;43.596;1.320;2023-03-09T03:57:42;11.90;99.90
27506;DHT22;14939;43.596;1.320;2023-03-09T04:00:08;11.90;99.90
27506;DHT22;14939;43.596;1.320;2023-03-09T04:02:37;11.90;99.90
27506;DHT22;14939;43.596;1.320;2023-03-09T04:05:04;11.80;99.90
27506;DHT22;14939;43.596;1.320;2023-03-09T04:07:30;11.80;99.90
27506;DHT22;14939;43.596;1.320;2023-03-09T04:09:55;11.70;99.90
27506;DHT22;14939;43.596;1.320;2023-03-09T04:12:21;11.70;99.90
27506;DHT22;14939;43.596;1.320;2023-03-09T04:14:47;11.70;99.90
27506;DHT22;14939;43.596;1.320;2023-03-09T04:17:12;11.70;99.90
27506;DHT22;14939;43.596;1.320;2023-03-09T04:19:38;11.70;99.90
27506;DHT22;14939;43.596;1.320;2023-03-09T04:22:05;11.70;99.90
27506;DHT22;14939;43.596;1.320;2023-03-09T04:24:32;11.70;99.90
27506;DHT22;14939;43.596;1.320;2023-03-09T04:26:58;11.70;99.90
27506;DHT22;14939;43.596;1.320;2023-03-09T04:29:24;11.70;99.90
27506;DHT22;14939;43.596;1.320;2023-03-09T04:31:50;11.70;99.90
27506;DHT22;14939;43.596;1.320;2023-03-09T04:34:16;11.70;99.90
27506;DHT22;14939;43.596;1.320;2023-03-09T04:36:41;11.70;99.90
27506;DHT22;14939;43.596;1.320;2023-03-09T04:39:07;11.70;99.90
27506;DHT22;14939;43.596;1.320;2023-03-09T04:41:33;11.70;99.90
27506;DHT22;14939;43.596;1.320;2023-03-09T04:43:59;11.60;99.90
27506;DHT22;14939;43.596;1.320;2023-03-09T04:46:25;11.60;99.90
27506;DHT22;14939;43.596;1.320;2023-03-09T04:48:51;11.50;99.90
27506;DHT22;14939;43.596;1.320;2023-03-09T04:51:16;11.40;99.90
27506;DHT22;14939;43.596;1.320;2023-03-09T04:53:42;11.30;99.90
27506;DHT22;14939;43.596;1.320;2023-03-09T04:56:09;11.30;99.90
27506;DHT22;14939;43.596;1.320;2023-03-09T04:58:34;11.30;99.90
27506;DHT22;14939;43.596;1.320;2023-03-09T05:01:00;11.30;99.90
27506;DHT22;14939;43.596;1.320;2023-03-09T05:03:29;11.20;99.90
27506;DHT22;14939;43.596;1.320;2023-03-09T05:05:55;11.30;99.90
27506;DHT22;14939;43.596;1.320;2023-03-09T05:08:21;11.20;99.90
27506;DHT22;14939;43.596;1.320;2023-03-09T05:10:47;11.20;99.90
27506;DHT22;14939;43.596;1.320;2023-03-09T05:13:13;11.20;99.90
27506;DHT22;14939;43.596;1.320;2023-03-09T05:15:40;11.10;99.90
27506;DHT22;14939;43.596;1.320;2023-03-09T05:18:07;11.00;99.90
27506;DHT22;14939;43.596;1.320;2023-03-09T05:20:33;11.00;99.90
27506;DHT22;14939;43.596;1.320;2023-03-09T05:23:00;10.90;99.90
27506;DHT22;14939;43.596;1.320;2023-03-09T05:25:26;10.80;99.90
27506;DHT22;14939;43.596;1.320;2023-03-09T05:27:51;10.70;99.90
27506;DHT22;14939;43.596;1.320;2023-03-09T05:30:18;10.70;99.90
27506;DHT22;14939;43.596;1.320;2023-03-09T05:32:48;10.70;99.90
27506;DHT22;14939;43.596;1.320;2023-03-09T05:35:18;10.70;99.90
27506;DHT22;14939;43.596;1.320;2023-03-09T05:37:44;10.60;99.90
27506;DHT22;14939;43.596;1.320;2023-03-09T05:40:12;10.60;99.90
27506;DHT22;14939;43.596;1.320;2023-03-09T05:42:38;10.60;99.90
27506;DHT22;14939;43.596;1.320;2023-03-09T05:45:04;10.50;99.90
27506;DHT22;14939;43.596;1.320;2023-03-09T05:47:31;10.50;99.90
27506;DHT22;14939;43.596;1.320;2023-03-09T05:49:57;10.50;99.90
27506;DHT22;14939;43.596;1.320;2023-03-09T05:52:23;10.50;99.90
27506;DHT22;14939;43.596;1.320;2023-03-09T05:54:48;10.60;99.90
27506;DHT22;14939;43.596;1.320;2023-03-09T05:57:14;10.50;99.90
27506;DHT22;14939;43.596;1.320;2023-03-09T05:59:40;10.50;99.90
27506;DHT22;14939;43.596;1.320;2023-03-09T06:02:06;10.50;99.90
27506;DHT22;14939;43.596;1.320;2023-03-09T06:04:32;10.50;99.90
27506;DHT22;14939;43.596;1.320;2023-03-09T06:06:58;10.40;99.90
27506;DHT22;14939;43.596;1.320;2023-03-09T06:09:24;10.40;99.90
27506;DHT22;14939;43.596;1.320;2023-03-09T06:11:51;10.40;99.90
27506;DHT22;14939;43.596;1.320;2023-03-09T06:14:16;10.50;99.90
27506;DHT22;14939;43.596;1.320;2023-03-09T06:16:42;10.50;99.90
27506;DHT22;14939;43.596;1.320;2023-03-09T06:19:08;10.40;99.90
27506;DHT22;14939;43.596;1.320;2023-03-09T06:21:34;10.30;99.90
27506;DHT22;14939;43.596;1.320;2023-03-09T06:24:00;10.30;99.90
27506;DHT22;14939;43.596;1.320;2023-03-09T06:26:26;10.30;99.90
27506;DHT22;14939;43.596;1.320;2023-03-09T06:28:52;10.30;99.90
27506;DHT22;14939;43.596;1.320;2023-03-09T06:31:18;10.20;99.90
27506;DHT22;14939;43.596;1.320;2023-03-09T06:33:45;10.30;99.90
27506;DHT22;14939;43.596;1.320;2023-03-09T06:36:13;10.30;99.90
27506;DHT22;14939;43.596;1.320;2023-03-09T06:38:39;10.30;99.90
27506;DHT22;14939;43.596;1.320;2023-03-09T06:41:05;10.30;99.90
27506;DHT22;14939;43.596;1.320;2023-03-09T06:43:31;10.30;99.90
27506;DHT22;14939;43.596;1.320;2023-03-09T06:45:56;10.40;99.90
27506;DHT22;14939;43.596;1.320;2023-03-09T06:48:22;10.40;99.90
27506;DHT22;14939;43.596;1.320;2023-03-09T06:50:48;10.40;99.90
27506;DHT22;14939;43.596;1.320;2023-03-09T06:53:14;10.50;99.90
27506;DHT22;14939;43.596;1.320;2023-03-09T06:55:40;10.50;99.90
27506;DHT22;14939;43.596;1.320;2023-03-09T06:58:06;10.60;99.90
27506;DHT22;14939;43.596;1.320;2023-03-09T07:00:32;10.60;99.90
27506;DHT22;14939;43.596;1.320;2023-03-09T07:03:04;10.60;99.90
27506;DHT22;14939;43.596;1.320;2023-03-09T07:05:29;10.60;99.90
27506;DHT22;14939;43.596;1.320;2023-03-09T07:07:55;10.60;99.90
27506;DHT22;14939;43.596;1.320;2023-03-09T07:10:21;10.60;99.90
27506;DHT22;14939;43.596;1.320;2023-03-09T07:12:47;10.70;99.90
27506;DHT22;14939;43.596;1.320;2023-03-09T07:15:14;10.70;99.90
27506;DHT22;14939;43.596;1.320;2023-03-09T07:17:40;10.70;99.90
27506;DHT22;14939;43.596;1.320;2023-03-09T07:20:09;10.80;99.90
27506;DHT22;14939;43.596;1.320;2023-03-09T07:22:35;10.80;99.90
27506;DHT22;14939;43.596;1.320;2023-03-09T07:25:00;10.80;99.90
27506;DHT22;14939;43.596;1.320;2023-03-09T07:27:26;10.80;99.90
27506;DHT22;14939;43.596;1.320;2023-03-09T07:29:52;10.90;99.90
27506;DHT22;14939;43.596;1.320;2023-03-09T07:32:18;10.90;99.90
27506;DHT22;14939;43.596;1.320;2023-03-09T07:34:44;11.00;99.90
27506;DHT22;14939;43.596;1.320;2023-03-09T07:37:10;11.00;99.90
27506;DHT22;14939;43.596;1.320;2023-03-09T07:39:35;11.10;99.90
27506;DHT22;14939;43.596;1.320;2023-03-09T07:42:01;11.10;99.90
27506;DHT22;14939;43.596;1.320;2023-03-09T07:44:28;11.20;99.90
27506;DHT22;14939;43.596;1.320;2023-03-09T07:46:54;11.30;99.90
27506;DHT22;14939;43.596;1.320;2023-03-09T07:49:20;11.40;99.90
27506;DHT22;14939;43.596;1.320;2023-03-09T07:51:46;11.50;99.90
27506;DHT22;14939;43.596;1.320;2023-03-09T07:54:11;11.50;99.90
27506;DHT22;14939;43.596;1.320;2023-03-09T07:56:37;11.50;99.90
27506;DHT22;14939;43.596;1.320;2023-03-09T07:59:03;11.60;99.90
27506;DHT22;14939;43.596;1.320;2023-03-09T08:01:29;11.70;99.90
27506;DHT22;14939;43.596;1.320;2023-03-09T08:03:55;11.80;99.90
27506;DHT22;14939;43.596;1.320;2023-03-09T08:06:21;11.90;99.90
27506;DHT22;14939;43.596;1.320;2023-03-09T08:08:47;11.90;99.90
27506;DHT22;14939;43.596;1.320;2023-03-09T08:11:13;12.00;99.90
27506;DHT22;14939;43.596;1.320;2023-03-09T08:13:39;12.00;99.90
27506;DHT22;14939;43.596;1.320;2023-03-09T08:16:09;12.10;99.90
27506;DHT22;14939;43.596;1.320;2023-03-09T08:18:35;12.20;99.90
27506;DHT22;14939;43.596;1.320;2023-03-09T08:21:06;12.20;99.90
27506;DHT22;14939;43.596;1.320;2023-03-09T08:23:33;12.30;99.90
27506;DHT22;14939;43.596;1.320;2023-03-09T08:26:01;12.30;99.90
27506;DHT22;14939;43.596;1.320;2023-03-09T08:28:26;12.40;99.90
27506;DHT22;14939;43.596;1.320;2023-03-09T08:30:52;12.50;99.90
27506;DHT22;14939;43.596;1.320;2023-03-09T08:33:18;12.60;99.90
27506;DHT22;14939;43.596;1.320;2023-03-09T08:35:44;12.70;99.90
27506;DHT22;14939;43.596;1.320;2023-03-09T08:38:09;12.70;99.90
27506;DHT22;14939;43.596;1.320;2023-03-09T08:40:37;12.70;99.90
27506;DHT22;14939;43.596;1.320;2023-03-09T08:43:03;12.70;99.90
27506;DHT22;14939;43.596;1.320;2023-03-09T08:45:29;12.80;99.90
27506;DHT22;14939;43.596;1.320;2023-03-09T08:47:55;12.80;99.90
27506;DHT22;14939;43.596;1.320;2023-03-09T08:50:20;12.90;99.90
27506;DHT22;14939;43.596;1.320;2023-03-09T08:52:46;13.00;99.90
27506;DHT22;14939;43.596;1.320;2023-03-09T08:55:12;13.00;99.90
27506;DHT22;14939;43.596;1.320;2023-03-09T08:57:38;13.20;99.90
27506;DHT22;14939;43.596;1.320;2023-03-09T09:00:05;13.20;99.90
27506;DHT22;14939;43.596;1.320;2023-03-09T09:02:33;13.20;99.90
27506;DHT22;14939;43.596;1.320;2023-03-09T09:04:59;13.30;99.90
27506;DHT22;14939;43.596;1.320;2023-03-09T09:07:24;13.40;99.90
27506;DHT22;14939;43.596;1.320;2023-03-09T09:09:50;13.50;99.90
27506;DHT22;14939;43.596;1.320;2023-03-09T09:12:16;13.50;99.90
27506;DHT22;14939;43.596;1.320;2023-03-09T09:14:41;13.60;99.90
27506;DHT22;14939;43.596;1.320;2023-03-09T09:17:08;13.80;99.90
27506;DHT22;14939;43.596;1.320;2023-03-09T09:19:38;13.90;99.90
27506;DHT22;14939;43.596;1.320;2023-03-09T09:22:05;14.00;99.90
27506;DHT22;14939;43.596;1.320;2023-03-09T09:24:32;14.10;99.90
27506;DHT22;14939;43.596;1.320;2023-03-09T09:27:00;14.10;99.90
27506;DHT22;14939;43.596;1.320;2023-03-09T09:29:26;14.20;99.90
27506;DHT22;14939;43.596;1.320;2023-03-09T09:31:52;14.20;99.90
27506;DHT22;14939;43.596;1.320;2023-03-09T09:34:18;14.30;99.90
27506;DHT22;14939;43.596;1.320;2023-03-09T09:36:44;14.10;99.90
27506;DHT22;14939;43.596;1.320;2023-03-09T09:39:14;14.00;99.90
27506;DHT22;14939;43.596;1.320;2023-03-09T09:41:55;13.90;99.90
27506;DHT22;14939;43.596;1.320;2023-03-09T09:44:41;13.80;99.90
27506;DHT22;14939;43.596;1.320;2023-03-09T09:47:13;13.70;99.90
27506;DHT22;14939;43.596;1.320;2023-03-09T09:49:44;13.60;99.90
27506;DHT22;14939;43.596;1.320;2023-03-09T09:55:05;13.50;99.90
27506;DHT22;14939;43.596;1.320;2023-03-09T09:57:43;13.40;99.90
27506;DHT22;14939;43.596;1.320;2023-03-09T10:05:31;13.40;99.90
27506;DHT22;14939;43.596;1.320;2023-03-09T10:10:44;13.40;99.90
27506;DHT22;14939;43.596;1.320;2023-03-09T10:13:28;13.40;99.90
27506;DHT22;14939;43.596;1.320;2023-03-09T10:15:54;13.40;99.90
27506;DHT22;14939;43.596;1.320;2023-03-09T10:18:32;13.50;99.90
27506;DHT22;14939;43.596;1.320;2023-03-09T10:20:59;13.60;99.90
27506;DHT22;14939;43.596;1.320;2023-03-09T10:23:35;13.60;99.90
27506;DHT22;14939;43.596;1.320;2023-03-09T10:28:50;13.70;99.90
27506;DHT22;14939;43.596;1.320;2023-03-09T10:31:39;13.70;99.90
27506;DHT22;14939;43.596;1.320;2023-03-09T10:34:22;13.60;99.90
27506;DHT22;14939;43.596;1.320;2023-03-09T10:37:02;13.70;99.90
27506;DHT22;14939;43.596;1.320;2023-03-09T10:39:36;13.80;99.90
27506;DHT22;14939;43.596;1.320;2023-03-09T10:42:26;13.90;99.90
27506;DHT22;14939;43.596;1.320;2023-03-09T10:47:53;14.10;99.90
27506;DHT22;14939;43.596;1.320;2023-03-09T10:50:21;14.20;99.90
27506;DHT22;14939;43.596;1.320;2023-03-09T10:52:50;14.30;99.90
27506;DHT22;14939;43.596;1.320;2023-03-09T10:57:56;14.50;99.90
27506;DHT22;14939;43.596;1.320;2023-03-09T11:00:22;14.60;99.90
27506;DHT22;14939;43.596;1.320;2023-03-09T11:02:56;14.80;99.90
27506;DHT22;14939;43.596;1.320;2023-03-09T11:05:26;14.90;99.90
27506;DHT22;14939;43.596;1.320;2023-03-09T11:07:57;15.00;99.90
27506;DHT22;14939;43.596;1.320;2023-03-09T11:10:31;15.10;99.90
27506;DHT22;14939;43.596;1.320;2023-03-09T11:12:58;15.20;99.90
27506;DHT22;14939;43.596;1.320;2023-03-09T11:15:30;15.20;99.90
27506;DHT22;14939;43.596;1.320;2023-03-09T11:17:58;15.30;99.90
27506;DHT22;14939;43.596;1.320;2023-03-09T11:20:28;15.40;99.90
27506;DHT22;14939;43.596;1.320;2023-03-09T11:23:13;15.50;99.90
27506;DHT22;14939;43.596;1.320;2023-03-09T11:26:02;15.70;99.90
27506;DHT22;14939;43.596;1.320;2023-03-09T11:31:37;15.90;99.90
27506;DHT22;14939;43.596;1.320;2023-03-09T11:34:07;15.90;99.90
27506;DHT22;14939;43.596;1.320;2023-03-09T11:36:43;16.00;99.90
27506;DHT22;14939;43.596;1.320;2023-03-09T11:41:57;16.10;99.90
27506;DHT22;14939;43.596;1.320;2023-03-09T11:44:36;16.20;99.90
27506;DHT22;14939;43.596;1.320;2023-03-09T11:47:15;16.30;99.90
27506;DHT22;14939;43.596;1.320;2023-03-09T11:49:43;16.40;99.90
27506;DHT22;14939;43.596;1.320;2023-03-09T11:52:18;16.40;99.90
27506;DHT22;14939;43.596;1.320;2023-03-09T11:54:49;16.40;99.90
27506;DHT22;14939;43.596;1.320;2023-03-09T11:57:18;16.60;99.90
27506;DHT22;14939;43.596;1.320;2023-03-09T11:59:54;16.60;99.90
27506;DHT22;14939;43.596;1.320;2023-03-09T12:02:53;16.70;99.90
27506;DHT22;14939;43.596;1.320;2023-03-09T12:05:23;16.80;99.90
27506;DHT22;14939;43.596;1.320;2023-03-09T12:08:04;16.80;99.90
27506;DHT22;14939;43.596;1.320;2023-03-09T12:10:40;16.90;99.90
27506;DHT22;14939;43.596;1.320;2023-03-09T12:13:30;17.00;99.90
27506;DHT22;14939;43.596;1.320;2023-03-09T12:16:15;17.00;99.90
27506;DHT22;14939;43.596;1.320;2023-03-09T12:21:39;17.20;99.90
27506;DHT22;14939;43.596;1.320;2023-03-09T12:27:16;17.50;99.90
27506;DHT22;14939;43.596;1.320;2023-03-09T12:29:46;17.60;99.90
27506;DHT22;14939;43.596;1.320;2023-03-09T12:34:50;17.70;99.90
27506;DHT22;14939;43.596;1.320;2023-03-09T12:40:21;17.90;99.90
27506;DHT22;14939;43.596;1.320;2023-03-09T12:45:48;17.90;99.90
27506;DHT22;14939;43.596;1.320;2023-03-09T12:48:33;18.00;99.90
27506;DHT22;14939;43.596;1.320;2023-03-09T12:51:19;18.10;99.90
27506;DHT22;14939;43.596;1.320;2023-03-09T12:54:04;18.30;99.90
27506;DHT22;14939;43.596;1.320;2023-03-09T12:56:32;18.40;99.90
27506;DHT22;14939;43.596;1.320;2023-03-09T12:58:59;18.50;99.90
27506;DHT22;14939;43.596;1.320;2023-03-09T13:03:53;18.70;99.90
27506;DHT22;14939;43.596;1.320;2023-03-09T13:06:39;18.60;99.90
27506;DHT22;14939;43.596;1.320;2023-03-09T13:11:44;18.50;99.90
27506;DHT22;14939;43.596;1.320;2023-03-09T13:21:45;18.70;99.90
27506;DHT22;14939;43.596;1.320;2023-03-09T13:24:20;18.70;99.90
27506;DHT22;14939;43.596;1.320;2023-03-09T13:26:48;18.80;99.90
27506;DHT22;14939;43.596;1.320;2023-03-09T13:29:15;18.90;99.90
27506;DHT22;14939;43.596;1.320;2023-03-09T13:31:45;19.00;99.90
27506;DHT22;14939;43.596;1.320;2023-03-09T13:34:38;19.10;99.90
27506;DHT22;14939;43.596;1.320;2023-03-09T13:37:05;19.20;99.90
27506;DHT22;14939;43.596;1.320;2023-03-09T13:39:32;19.30;99.90
27506;DHT22;14939;43.596;1.320;2023-03-09T13:42:02;19.30;99.90
27506;DHT22;14939;43.596;1.320;2023-03-09T13:44:29;19.30;99.90
27506;DHT22;14939;43.596;1.320;2023-03-09T13:46:57;19.30;99.90
27506;DHT22;14939;43.596;1.320;2023-03-09T13:49:35;19.50;99.90
27506;DHT22;14939;43.596;1.320;2023-03-09T13:52:12;19.70;99.90
27506;DHT22;14939;43.596;1.320;2023-03-09T13:54:59;19.80;99.90
27506;DHT22;14939;43.596;1.320;2023-03-09T13:59:59;19.70;99.90
27506;DHT22;14939;43.596;1.320;2023-03-09T14:02:28;19.90;99.90
27506;DHT22;14939;43.596;1.320;2023-03-09T14:07:48;20.50;99.90
27506;DHT22;14939;43.596;1.320;2023-03-09T14:10:31;20.60;99.90
27506;DHT22;14939;43.596;1.320;2023-03-09T14:13:03;20.60;99.90
27506;DHT22;14939;43.596;1.320;2023-03-09T14:15:30;20.50;99.90
27506;DHT22;14939;43.596;1.320;2023-03-09T14:17:57;20.40;99.90
27506;DHT22;14939;43.596;1.320;2023-03-09T14:20:25;20.30;99.90
27506;DHT22;14939;43.596;1.320;2023-03-09T14:22:51;20.30;99.90
27506;DHT22;14939;43.596;1.320;2023-03-09T14:27:52;20.20;99.90
27506;DHT22;14939;43.596;1.320;2023-03-09T14:33:01;20.30;99.90
27506;DHT22;14939;43.596;1.320;2023-03-09T14:35:39;20.30;99.90
27506;DHT22;14939;43.596;1.320;2023-03-09T14:38:37;20.30;99.90
27506;DHT22;14939;43.596;1.320;2023-03-09T14:41:16;20.40;99.90
27506;DHT22;14939;43.596;1.320;2023-03-09T14:43:43;20.50;99.90
27506;DHT22;14939;43.596;1.320;2023-03-09T14:46:21;20.30;99.90
27506;DHT22;14939;43.596;1.320;2023-03-09T14:48:49;20.10;99.90
27506;DHT22;14939;43.596;1.320;2023-03-09T14:51:36;20.20;99.90
27506;DHT22;14939;43.596;1.320;2023-03-09T14:54:10;20.30;99.90
27506;DHT22;14939;43.596;1.320;2023-03-09T14:56:36;20.20;99.90
27506;DHT22;14939;43.596;1.320;2023-03-09T14:59:13;20.40;99.90
27506;DHT22;14939;43.596;1.320;2023-03-09T15:01:41;20.50;99.90
27506;DHT22;14939;43.596;1.320;2023-03-09T15:04:15;20.70;99.90
27506;DHT22;14939;43.596;1.320;2023-03-09T15:06:41;20.80;99.90
27506;DHT22;14939;43.596;1.320;2023-03-09T15:09:09;20.90;99.90
27506;DHT22;14939;43.596;1.320;2023-03-09T15:11:35;21.00;99.90
27506;DHT22;14939;43.596;1.320;2023-03-09T15:14:22;21.00;99.90
27506;DHT22;14939;43.596;1.320;2023-03-09T15:16:49;21.00;99.90
27506;DHT22;14939;43.596;1.320;2023-03-09T15:19:16;21.10;99.90
27506;DHT22;14939;43.596;1.320;2023-03-09T15:21:42;21.10;99.90
27506;DHT22;14939;43.596;1.320;2023-03-09T15:24:10;21.20;99.90
27506;DHT22;14939;43.596;1.320;2023-03-09T15:26:37;21.30;99.90
27506;DHT22;14939;43.596;1.320;2023-03-09T15:29:03;21.10;99.90
27506;DHT22;14939;43.596;1.320;2023-03-09T15:31:28;20.80;99.90
27506;DHT22;14939;43.596;1.320;2023-03-09T15:33:56;20.40;99.90
27506;DHT22;14939;43.596;1.320;2023-03-09T15:36:23;20.00;99.90
27506;DHT22;14939;43.596;1.320;2023-03-09T15:38:49;19.70;99.90
27506;DHT22;14939;43.596;1.320;2023-03-09T15:41:15;19.40;99.90
27506;DHT22;14939;43.596;1.320;2023-03-09T15:43:41;19.20;99.90
27506;DHT22;14939;43.596;1.320;2023-03-09T15:46:07;19.10;99.90
27506;DHT22;14939;43.596;1.320;2023-03-09T15:48:34;19.00;99.90
27506;DHT22;14939;43.596;1.320;2023-03-09T15:51:00;18.90;99.90
27506;DHT22;14939;43.596;1.320;2023-03-09T15:53:26;18.80;99.90
27506;DHT22;14939;43.596;1.320;2023-03-09T15:56:05;18.70;99.90
27506;DHT22;14939;43.596;1.320;2023-03-09T15:58:32;18.90;99.90
27506;DHT22;14939;43.596;1.320;2023-03-09T16:01:23;19.30;99.90
27506;DHT22;14939;43.596;1.320;2023-03-09T16:03:49;19.60;99.90
27506;DHT22;14939;43.596;1.320;2023-03-09T16:06:16;19.70;99.90
27506;DHT22;14939;43.596;1.320;2023-03-09T16:08:42;19.50;99.90
27506;DHT22;14939;43.596;1.320;2023-03-09T16:11:08;19.40;99.90
27506;DHT22;14939;43.596;1.320;2023-03-09T16:13:34;19.30;99.90
27506;DHT22;14939;43.596;1.320;2023-03-09T16:16:00;19.10;99.90
27506;DHT22;14939;43.596;1.320;2023-03-09T16:18:25;19.40;99.90
27506;DHT22;14939;43.596;1.320;2023-03-09T16:20:51;19.90;99.90
27506;DHT22;14939;43.596;1.320;2023-03-09T16:23:16;19.70;99.90
27506;DHT22;14939;43.596;1.320;2023-03-09T16:25:49;19.40;99.90
27506;DHT22;14939;43.596;1.320;2023-03-09T16:28:15;19.10;99.90
27506;DHT22;14939;43.596;1.320;2023-03-09T16:30:42;18.90;99.90
27506;DHT22;14939;43.596;1.320;2023-03-09T16:33:08;18.60;99.90
27506;DHT22;14939;43.596;1.320;2023-03-09T16:35:33;18.50;99.90
27506;DHT22;14939;43.596;1.320;2023-03-09T16:37:59;18.30;99.90
27506;DHT22;14939;43.596;1.320;2023-03-09T16:40:25;18.30;99.90
27506;DHT22;14939;43.596;1.320;2023-03-09T16:42:51;18.20;99.90
27506;DHT22;14939;43.596;1.320;2023-03-09T16:45:17;18.20;99.90
27506;DHT22;14939;43.596;1.320;2023-03-09T16:47:44;18.20;99.90
27506;DHT22;14939;43.596;1.320;2023-03-09T16:50:13;18.20;99.90
27506;DHT22;14939;43.596;1.320;2023-03-09T16:52:40;18.30;99.90
27506;DHT22;14939;43.596;1.320;2023-03-09T16:55:07;18.20;99.90
27506;DHT22;14939;43.596;1.320;2023-03-09T16:57:35;18.10;99.90
27506;DHT22;14939;43.596;1.320;2023-03-09T17:00:01;18.00;99.90